Time;durP1;ratioP1;P1;durP2;ratioP2;P2;SDS_P1;SDS_P2;PMS_P1;PMS_P2;Temp;Humidity;BMP_temperature;BMP_pressure;BME280_temperature;BME280_humidity;BME280_pressure;Samples;Min_cycle;Max_cycle;Signal;HPM_P1;HPM_P2
2022/07/03 00:01:39;;;;;;;16.42;7.95;;;;;;;14.11;70.45;100837.03;2073796;84;21004;-82
2022/07/03 00:04:40;;;;;;;10.20;6.97;;;;;;;13.99;70.94;100839.72;2043465;86;21585;-80
2022/07/03 00:07:41;;;;;;;7.67;6.80;;;;;;;13.96;71.10;100835.23;2052800;85;21596;-78
2022/07/03 00:10:42;;;;;;;9.73;6.42;;;;;;;13.87;71.50;100832.59;2051817;85;21496;-82
2022/07/03 00:13:43;;;;;;;12.93;5.92;;;;;;;13.79;71.48;100833.11;2053040;85;21011;-80
2022/07/03 00:16:45;;;;;;;12.18;6.90;;;;;;;13.73;71.52;100829.28;2056697;85;22155;-82
2022/07/03 00:19:46;;;;;;;8.28;5.58;;;;;;;13.70;71.99;100824.30;2052807;85;21499;-80
2022/07/03 00:22:49;;;;;;;8.88;6.55;;;;;;;13.71;72.12;100825.95;2052516;85;21022;-78
2022/07/03 00:25:51;;;;;;;7.92;6.35;;;;;;;13.71;72.46;100824.61;2046836;85;21014;-80
2022/07/03 00:28:54;;;;;;;10.75;6.45;;;;;;;13.74;72.51;100824.30;2048568;85;21014;-82
2022/07/03 00:31:55;;;;;;;7.90;6.95;;;;;;;13.68;72.37;100821.81;2045985;86;21042;-83
2022/07/03 00:34:58;;;;;;;9.85;6.40;;;;;;;13.61;72.59;100821.32;2037063;86;21024;-81
2022/07/03 00:38:00;;;;;;;10.38;6.90;;;;;;;13.59;72.72;100816.65;2040723;86;21011;-82
2022/07/03 00:41:04;;;;;;;10.88;5.40;;;;;;;13.59;72.23;100820.14;2040389;86;21132;-80
2022/07/03 00:44:05;;;;;;;11.08;5.58;;;;;;;13.59;72.23;100820.14;2040284;86;21086;-81
2022/07/03 00:47:08;;;;;;;10.43;4.90;;;;;;;13.60;72.20;100817.83;2040899;86;20999;-82
2022/07/03 00:50:10;;;;;;;15.43;5.20;;;;;;;13.59;71.94;100821.98;2038598;86;21031;-78
2022/07/03 00:53:13;;;;;;;11.18;5.08;;;;;;;13.56;72.02;100822.33;2039760;86;21023;-83
2022/07/03 00:56:19;;;;;;;12.95;5.92;;;;;;;13.55;72.56;100830.83;2041400;86;21597;-80
2022/07/03 00:59:21;;;;;;;11.00;5.65;;;;;;;13.51;72.18;100822.81;2047855;86;21004;-82
2022/07/03 01:03:01;;;;;;;11.43;5.15;;;;;;;13.43;72.20;100824.16;2045324;86;21043;-82
2022/07/03 01:06:14;;;;;;;8.97;5.87;;;;;;;13.36;72.23;100826.67;2041843;86;21570;-83
2022/07/03 01:09:21;;;;;;;12.35;5.33;;;;;;;13.19;72.45;100827.65;2041403;86;21798;-79
2022/07/03 01:13:20;;;;;;;10.35;5.87;;;;;;;13.10;72.71;100825.99;2033458;86;21019;-82
2022/07/03 01:17:03;;;;;;;8.40;6.17;;;;;;;13.07;72.84;100821.00;2101197;83;20984;-81
2022/07/03 01:20:07;;;;;;;9.35;6.22;;;;;;;12.91;73.12;100808.48;2108518;83;21039;-79
2022/07/03 01:23:13;;;;;;;8.78;4.72;;;;;;;12.76;73.46;100802.48;2109550;83;21510;-83
2022/07/03 01:26:16;;;;;;;6.78;4.67;;;;;;;12.72;73.07;100796.30;2102010;83;21538;-81
2022/07/03 01:29:22;;;;;;;11.60;5.50;;;;;;;12.65;72.82;100796.64;2107712;83;20996;-81
2022/07/03 01:32:28;;;;;;;11.80;5.47;;;;;;;12.65;72.86;100797.97;2105577;83;21036;-83
2022/07/03 01:35:40;;;;;;;10.48;4.70;;;;;;;12.64;72.79;100801.14;2100476;83;21419;-80
2022/07/03 01:38:42;;;;;;;10.55;4.70;;;;;;;12.64;72.86;100798.95;2096266;83;21071;-81
2022/07/03 01:41:47;;;;;;;14.05;6.12;;;;;;;12.60;72.71;100798.95;2101508;83;21022;-82
2022/07/03 01:44:55;;;;;;;11.18;4.75;;;;;;;12.56;72.81;100789.97;2104474;83;21102;-81
2022/07/03 01:47:58;;;;;;;18.90;5.17;;;;;;;12.55;72.70;100786.13;2113765;83;21062;-80
2022/07/03 01:51:00;;;;;;;7.33;4.97;;;;;;;12.52;72.78;100779.80;2101207;83;21092;-81
2022/07/03 01:54:03;;;;;;;12.78;6.37;;;;;;;12.49;72.83;100773.47;2106695;83;21039;-80
2022/07/03 01:57:06;;;;;;;15.05;5.25;;;;;;;12.41;73.38;100768.95;2104542;83;21002;-80
2022/07/03 02:00:08;;;;;;;9.85;5.47;;;;;;;12.37;72.94;100772.95;2106495;83;21027;-81
2022/07/03 02:03:17;;;;;;;10.70;5.47;;;;;;;12.32;72.87;100772.59;2102548;83;21050;-81
2022/07/03 02:06:56;;;;;;;7.53;5.60;;;;;;;12.28;72.97;100770.77;2099187;83;20980;-81
2022/07/03 02:10:09;;;;;;;14.07;5.17;;;;;;;12.25;73.20;100775.59;2107594;83;21541;-83
2022/07/03 02:13:27;;;;;;;8.88;4.37;;;;;;;12.22;73.05;100776.73;2105548;83;21003;-79
2022/07/03 02:16:33;;;;;;;16.42;4.83;;;;;;;12.16;72.97;100776.03;2108380;83;21035;-83
2022/07/03 02:19:55;;;;;;;8.23;5.62;;;;;;;12.19;72.88;100770.89;2101520;83;21028;-82
2022/07/03 02:23:02;;;;;;;10.20;5.37;;;;;;;12.20;73.32;100764.59;2107199;83;21008;-79
2022/07/03 02:26:08;;;;;;;9.00;5.40;;;;;;;12.17;72.92;100766.25;2099704;83;20979;-81
2022/07/03 02:29:18;;;;;;;12.33;5.33;;;;;;;12.14;72.91;100773.22;2102736;83;21071;-81
2022/07/03 02:32:22;;;;;;;12.67;3.70;;;;;;;12.10;72.85;100773.52;2080807;83;21027;-81
2022/07/03 02:35:30;;;;;;;10.82;5.97;;;;;;;12.07;73.07;100774.34;2110356;83;21482;-81
2022/07/03 02:38:34;;;;;;;8.55;6.28;;;;;;;12.03;73.59;100761.87;2031901;86;21032;-82
2022/07/03 02:41:49;;;;;;;7.45;5.28;;;;;;;12.04;73.77;100760.86;2044464;86;20971;-81
2022/07/03 02:44:54;;;;;;;14.60;5.30;;;;;;;12.00;73.81;100766.69;2044534;86;21039;-82
2022/07/03 02:48:07;;;;;;;13.08;5.12;;;;;;;11.95;73.54;100771.14;2102792;83;21521;-83
2022/07/03 02:51:19;;;;;;;14.55;6.15;;;;;;;11.90;73.48;100758.81;2104699;83;20995;-80
2022/07/03 02:54:20;;;;;;;13.85;7.28;;;;;;;11.87;73.77;100760.47;2101641;82;21067;-80
2022/07/03 02:57:24;;;;;;;10.75;6.75;;;;;;;11.84;74.38;100764.24;2100350;83;21518;-82
2022/07/03 03:00:26;;;;;;;9.60;5.75;;;;;;;11.89;74.74;100769.13;2101119;83;20998;-83
2022/07/03 03:03:30;;;;;;;7.70;5.40;;;;;;;11.93;74.26;100776.28;2106012;83;21462;-80
2022/07/03 03:06:33;;;;;;;9.43;5.08;;;;;;;11.93;73.95;100781.09;2113987;83;21014;-81
2022/07/03 03:09:44;;;;;;;10.48;5.05;;;;;;;11.91;73.88;100776.45;2096441;83;21035;-82
2022/07/03 03:12:53;;;;;;;6.75;5.15;;;;;;;11.91;73.98;100773.80;2100749;83;21030;-80
2022/07/03 03:16:08;;;;;;;11.50;5.92;;;;;;;11.96;73.99;100782.11;2103879;83;21039;-83
2022/07/03 03:19:12;;;;;;;11.08;6.78;;;;;;;12.02;74.29;100773.52;2036058;86;20969;-83
2022/07/03 03:22:41;;;;;;;8.03;6.85;;;;;;;12.04;74.65;100778.16;2039027;86;21023;-81
2022/07/03 03:25:42;;;;;;;11.57;5.95;;;;;;;12.02;74.77;100777.50;2043282;86;21514;-78
2022/07/03 03:28:43;;;;;;;8.95;7.45;;;;;;;12.07;75.00;100778.33;2040065;86;21570;-83
2022/07/03 03:31:46;;;;;;;10.75;7.10;;;;;;;12.20;75.40;100780.05;2045525;86;21042;-82
2022/07/03 03:34:49;;;;;;;8.18;7.12;;;;;;;12.53;75.72;100774.33;2034752;86;21031;-80
2022/07/03 03:37:53;;;;;;;9.88;6.45;;;;;;;12.97;75.50;100779.34;2040117;86;21028;-82
2022/07/03 03:40:55;;;;;;;10.18;6.30;;;;;;;13.50;75.37;100780.34;2049940;86;21039;-79
2022/07/03 03:43:56;;;;;;;7.45;6.67;;;;;;;13.95;74.92;100778.89;2049856;86;21059;-81
2022/07/03 03:46:57;;;;;;;10.35;6.12;;;;;;;14.44;74.69;100782.13;2043353;85;21023;-79
2022/07/03 03:50:00;;;;;;;6.90;6.17;;;;;;;14.88;74.07;100775.38;2049938;86;21036;-82
2022/07/03 03:53:01;;;;;;;10.68;6.80;;;;;;;15.22;73.64;100770.41;2045269;85;21034;-84
2022/07/03 03:56:14;;;;;;;6.83;6.12;;;;;;;15.68;73.49;100769.47;2019326;86;21122;-82
2022/07/03 03:59:15;;;;;;;9.60;6.53;;;;;;;16.18;72.96;100765.19;2044337;85;21561;-82
2022/07/03 04:02:17;;;;;;;9.35;6.60;;;;;;;16.69;72.54;100763.78;2048577;86;21042;-81
2022/07/03 04:05:19;;;;;;;8.20;5.40;;;;;;;17.20;71.74;100756.11;2041079;85;21011;-80
2022/07/03 04:08:22;;;;;;;7.00;5.87;;;;;;;17.57;71.01;100754.95;2054277;85;21011;-84
2022/07/03 04:11:23;;;;;;;9.98;6.03;;;;;;;17.89;70.36;100748.64;2048285;86;21061;-83
2022/07/03 04:14:24;;;;;;;6.70;5.42;;;;;;;18.18;69.75;100754.22;2044787;85;20995;-82
2022/07/03 04:17:26;;;;;;;8.50;6.37;;;;;;;18.53;69.41;100752.80;2045781;85;20959;-83
2022/07/03 04:20:27;;;;;;;7.28;5.92;;;;;;;18.87;68.56;100746.98;2048495;86;21058;-80
2022/07/03 04:23:28;;;;;;;9.48;5.65;;;;;;;19.08;68.15;100745.41;2046372;86;21506;-83
2022/07/03 04:26:33;;;;;;;7.85;6.05;;;;;;;19.34;67.25;100740.52;2043737;85;20990;-83
2022/07/03 04:29:33;;;;;;;6.78;6.15;;;;;;;19.42;67.01;100740.83;2047158;85;21470;-83
2022/07/03 04:32:34;;;;;;;10.03;6.15;;;;;;;19.59;66.39;100747.41;2038995;84;21067;-81
2022/07/03 04:35:38;;;;;;;6.95;5.78;;;;;;;19.81;66.42;100741.80;2035217;86;21066;-83
2022/07/03 04:38:39;;;;;;;13.22;7.22;;;;;;;20.03;66.05;100729.70;2037643;86;21094;-83
2022/07/03 04:41:40;;;;;;;7.53;6.67;;;;;;;20.28;65.49;100727.61;2036148;86;20971;-82
2022/07/03 04:44:41;;;;;;;8.30;6.83;;;;;;;20.45;65.29;100732.80;2037837;86;21018;-83
2022/07/03 04:47:42;;;;;;;8.88;6.55;;;;;;;20.74;64.69;100735.42;2033878;86;21097;-81
2022/07/03 04:50:43;;;;;;;7.75;6.65;;;;;;;20.85;64.21;100731.72;2039104;86;21023;-82
2022/07/03 04:53:47;;;;;;;6.30;5.70;;;;;;;20.84;63.70;100734.95;2005016;87;21059;-82
2022/07/03 04:56:48;;;;;;;9.50;6.17;;;;;;;20.65;62.79;100735.91;2041628;86;21509;-83
2022/07/03 04:59:49;;;;;;;6.90;6.20;;;;;;;20.55;63.37;100735.03;2036807;86;21039;-83
2022/07/03 05:02:52;;;;;;;6.97;6.28;;;;;;;20.54;62.97;100742.30;2032542;86;22512;-82
2022/07/03 05:05:53;;;;;;;8.90;6.05;;;;;;;20.65;63.53;100740.78;2040955;86;21557;-80
2022/07/03 05:08:54;;;;;;;6.37;5.78;;;;;;;20.87;63.42;100741.25;2037891;86;21450;-81
2022/07/03 05:11:55;;;;;;;6.65;5.72;;;;;;;21.07;62.70;100745.66;2035164;86;21083;-83
2022/07/03 05:14:56;;;;;;;7.72;6.45;;;;;;;20.99;62.79;100734.61;2040408;86;21058;-82
2022/07/03 05:17:57;;;;;;;7.67;6.12;;;;;;;21.05;62.24;100737.24;2036978;86;20967;-82
2022/07/03 05:20:58;;;;;;;6.47;5.87;;;;;;;21.17;62.38;100739.22;2038558;86;21066;-84
2022/07/03 05:23:59;;;;;;;7.78;6.20;;;;;;;21.36;61.94;100736.86;2037571;86;21012;-81
2022/07/03 05:27:00;;;;;;;7.62;6.22;;;;;;;21.42;62.25;100743.27;2038836;86;21058;-80
2022/07/03 05:30:01;;;;;;;7.37;6.28;;;;;;;21.48;61.16;100739.67;2038990;86;21078;-81
2022/07/03 05:33:02;;;;;;;8.03;5.90;;;;;;;21.38;61.64;100738.85;2047236;86;21044;-82
2022/07/03 05:36:04;;;;;;;7.30;6.30;;;;;;;21.46;61.23;100738.56;2048960;86;21591;-81
2022/07/03 05:42:25;;;;;;;5.92;5.42;;;;;;;21.78;61.22;100734.89;2048495;86;21091;-81
2022/07/03 05:45:26;;;;;;;5.90;5.33;;;;;;;21.65;60.76;100735.36;2051495;86;21534;-83
2022/07/03 05:48:27;;;;;;;6.10;5.50;;;;;;;21.42;61.13;100730.59;2053254;85;20999;-82
2022/07/03 05:51:31;;;;;;;5.90;5.40;;;;;;;21.42;61.13;100731.94;2052302;86;21070;-81
2022/07/03 05:54:33;;;;;;;6.28;5.67;;;;;;;21.37;61.73;100730.96;2052289;86;21078;-82
2022/07/03 05:57:40;;;;;;;6.75;6.10;;;;;;;21.56;61.67;100730.46;2047745;86;22424;-82
2022/07/03 06:00:38;;;;;;;6.75;5.78;;;;;;;21.66;61.16;100732.13;2101521;83;21043;-81
2022/07/03 06:03:39;;;;;;;6.75;6.15;;;;;;;21.68;60.76;100735.41;2094924;83;21019;-85
2022/07/03 06:06:40;;;;;;;7.72;6.37;;;;;;;21.71;60.87;100733.62;2104868;83;21038;-83
2022/07/03 06:09:40;;;;;;;7.00;6.28;;;;;;;21.77;60.66;100727.86;2106989;83;21090;-82
2022/07/03 06:12:42;;;;;;;10.20;6.00;;;;;;;21.88;60.82;100727.09;2103053;83;21035;-81
2022/07/03 06:15:43;;;;;;;7.67;5.50;;;;;;;22.15;60.59;100732.97;2113354;83;20991;-81
2022/07/03 06:18:44;;;;;;;6.33;5.78;;;;;;;22.36;59.97;100729.80;2103594;83;20984;-81
2022/07/03 06:21:45;;;;;;;8.68;6.10;;;;;;;22.36;59.79;100729.80;2040442;86;21041;-81
2022/07/03 06:24:46;;;;;;;9.23;5.83;;;;;;;22.55;60.10;100724.32;2047295;86;21039;-81
2022/07/03 06:27:53;;;;;;;5.92;5.25;;;;;;;22.85;59.10;100728.33;2048672;86;21537;-80
2022/07/03 06:30:57;;;;;;;7.72;5.92;;;;;;;22.97;58.87;100724.31;2045149;86;21075;-81
2022/07/03 06:33:58;;;;;;;6.53;5.92;;;;;;;23.26;59.03;100727.45;2047856;85;21041;-80
2022/07/03 06:36:59;;;;;;;6.03;5.42;;;;;;;23.76;58.46;100728.00;2101294;83;21526;-82
2022/07/03 06:40:04;;;;;;;6.37;5.33;;;;;;;24.41;57.95;100722.21;2093614;83;20980;-80
2022/07/03 06:48:16;;;;;;;;;;;;;;;;;;;;;
2022/07/03 07:13:08;;;;;;;;;;;;;;;;;;;;;
2022/07/03 07:16:44;;;;;;;;;;;;;;;;;;;;;
2022/07/03 07:19:36;;;;;;;5.35;4.10;;;;;;;24.45;53.93;100694.94;1681572;104;21205;-83
2022/07/03 07:23:45;;;;;;;;;;;;;;;;;;;;;
2022/07/03 07:37:17;;;;;;;2.92;2.72;;;;;;;23.92;52.89;100677.94;1751273;99;21191;-81
2022/07/03 07:40:18;;;;;;;3.00;2.80;;;;;;;23.59;52.31;100677.23;1808927;95;21084;-82
2022/07/03 07:43:19;;;;;;;3.30;3.00;;;;;;;23.52;52.57;100673.04;1846265;92;21399;-83
2022/07/03 07:46:20;;;;;;;2.20;2.00;;;;;;;23.42;52.86;100671.73;1993297;86;21103;-83
2022/07/03 07:49:21;;;;;;;2.67;2.47;;;;;;;23.29;50.99;100671.20;2054666;83;21019;-82
2022/07/03 07:52:24;;;;;;;2.62;2.10;;;;;;;23.14;52.85;100668.95;2117043;83;21601;-80
2022/07/03 07:55:25;;;;;;;2.75;2.10;;;;;;;23.23;52.29;100671.08;2113279;83;21054;-81
2022/07/03 07:58:26;;;;;;;1.70;1.60;;;;;;;23.75;52.28;100667.58;2111469;83;21028;-80
2022/07/03 08:08:11;;;;;;;1.52;1.32;;;;;;;24.37;49.66;100652.73;2116140;83;20992;-84
2022/07/03 08:11:12;;;;;;;1.98;1.87;;;;;;;24.80;49.15;100650.46;2121808;83;21442;-85
2022/07/03 08:14:15;;;;;;;1.50;1.40;;;;;;;25.09;47.29;100652.53;2108769;83;21000;-84
2022/07/03 08:17:16;;;;;;;1.75;1.50;;;;;;;24.57;47.22;100663.13;2118495;83;20981;-83
2022/07/03 08:20:20;;;;;;;1.60;1.50;;;;;;;24.05;47.91;100666.54;2112112;83;20999;-83
2022/07/03 08:23:21;;;;;;;3.60;1.60;;;;;;;23.84;47.87;100663.95;2083645;83;21554;-82
2022/07/03 08:26:24;;;;;;;5.78;1.80;;;;;;;23.96;48.07;100656.59;2109935;83;20998;-82
2022/07/03 08:29:25;;;;;;;1.55;1.40;;;;;;;23.65;47.88;100653.28;2122446;83;21531;-82
2022/07/03 08:32:26;;;;;;;1.95;1.30;;;;;;;23.56;48.19;100660.66;2114151;83;21057;-82
2022/07/03 08:35:29;;;;;;;1.67;1.57;;;;;;;23.94;48.89;100655.50;2114347;83;20964;-84
2022/07/03 08:38:33;;;;;;;1.60;1.50;;;;;;;24.07;48.18;100648.94;2106519;83;21066;-83
2022/07/03 08:41:40;;;;;;;3.00;1.57;;;;;;;24.44;48.60;100648.56;2102021;83;21059;-82
2022/07/03 08:44:46;;;;;;;1.60;1.30;;;;;;;24.72;48.03;100649.52;2096912;83;21043;-81
2022/07/03 08:47:52;;;;;;;1.45;1.35;;;;;;;24.55;47.61;100656.30;2078369;83;21482;-82
2022/07/03 08:50:54;;;;;;;1.45;1.35;;;;;;;24.63;47.54;100651.83;2103330;83;21027;-83
2022/07/03 08:54:00;;;;;;;1.57;1.30;;;;;;;24.64;47.37;100645.86;2098736;83;21023;-82
2022/07/03 08:57:02;;;;;;;2.35;1.30;;;;;;;24.62;47.71;100653.45;2108148;83;21465;-84
2022/07/03 09:00:16;;;;;;;1.50;1.40;;;;;;;24.57;46.83;100650.11;2103906;83;21357;-82
2022/07/03 09:03:20;;;;;;;1.37;1.27;;;;;;;24.23;46.90;100643.81;2107577;83;21541;-83
2022/07/03 09:06:22;;;;;;;2.10;1.60;;;;;;;24.63;47.68;100630.13;2057609;84;21054;-83
2022/07/03 09:09:30;;;;;;;2.30;1.32;;;;;;;25.18;46.66;100626.62;2103268;83;21463;-82
2022/07/03 09:12:42;;;;;;;1.98;1.15;;;;;;;25.49;45.79;100627.83;2020531;86;21042;-82
2022/07/03 09:15:41;;;;;;;1.50;1.30;;;;;;;25.67;44.34;100632.64;2103094;83;21015;-81
2022/07/03 09:18:45;;;;;;;2.08;1.30;;;;;;;25.25;44.73;100616.37;2096437;83;21082;-82
2022/07/03 09:21:49;;;;;;;4.90;1.40;;;;;;;25.32;45.28;100612.67;2099287;83;20992;-84
2022/07/03 09:25:11;;;;;;;1.20;1.10;;;;;;;25.68;44.65;100615.28;2106079;83;21031;-81
2022/07/03 09:28:13;;;;;;;1.57;1.47;;;;;;;25.81;44.59;100616.22;2102625;83;21015;-82
2022/07/03 09:31:24;;;;;;;1.85;1.20;;;;;;;25.95;44.13;100613.95;2101812;83;20976;-83
2022/07/03 09:34:26;;;;;;;1.27;1.20;;;;;;;26.24;43.55;100614.48;2098957;83;21111;-84
2022/07/03 09:37:31;;;;;;;1.12;1.10;;;;;;;26.51;43.22;100609.02;2073196;83;21510;-82
2022/07/03 09:40:54;;;;;;;1.37;1.20;;;;;;;26.41;42.61;100608.09;2107100;83;21526;-83
2022/07/03 09:43:55;;;;;;;1.40;1.30;;;;;;;25.92;42.63;100604.41;2105958;83;21015;-82
2022/07/03 09:47:16;;;;;;;1.30;1.20;;;;;;;25.84;43.68;100598.61;2077453;83;20987;-86
2022/07/03 09:50:17;;;;;;;2.58;1.40;;;;;;;25.80;42.68;100597.47;2112092;83;20963;-81
2022/07/03 09:53:19;;;;;;;1.55;1.37;;;;;;;25.44;42.71;100592.45;2101817;83;21513;-82
2022/07/03 09:56:29;;;;;;;1.60;1.30;;;;;;;24.93;42.90;100593.13;2107889;83;21063;-83
2022/07/03 09:59:32;;;;;;;1.72;1.17;;;;;;;24.77;43.02;100590.72;2078173;83;21020;-83
2022/07/03 10:02:33;;;;;;;1.40;1.30;;;;;;;24.97;43.71;100587.47;2106579;83;20967;-81
2022/07/03 10:05:41;;;;;;;1.12;1.12;;;;;;;25.09;44.02;100582.46;2100335;82;20991;-82
2022/07/03 10:08:43;;;;;;;2.67;1.47;;;;;;;25.18;43.59;100581.00;2034980;86;21539;-81
2022/07/03 10:11:46;;;;;;;3.60;1.35;;;;;;;25.53;44.01;100577.06;2072413;83;21007;-80
2022/07/03 10:14:48;;;;;;;1.77;1.30;;;;;;;25.59;43.13;100568.70;2096944;83;21086;-79
2022/07/03 10:17:53;;;;;;;3.10;1.30;;;;;;;25.71;43.71;100574.01;2103492;83;21066;-82
2022/07/03 10:20:59;;;;;;;1.32;1.22;;;;;;;25.79;42.61;100576.27;2103402;83;21006;-82
2022/07/03 10:24:01;;;;;;;2.92;1.47;;;;;;;25.80;42.25;100571.64;2098645;83;21542;-81
2022/07/03 10:27:04;;;;;;;3.70;1.35;;;;;;;26.09;42.72;100569.48;2101633;83;21066;-80
2022/07/03 10:30:06;;;;;;;1.92;1.37;;;;;;;26.83;43.21;100572.76;2104001;83;21086;-80
2022/07/03 10:33:07;;;;;;;1.85;1.52;;;;;;;27.18;41.42;100569.98;2041055;85;20995;-79
2022/07/03 10:36:10;;;;;;;1.45;1.10;;;;;;;26.54;40.65;100566.88;2105204;83;21023;-83
2022/07/03 10:39:20;;;;;;;1.30;1.20;;;;;;;26.01;41.77;100556.36;2100595;83;20964;-80
2022/07/03 10:46:15;;;;;;;2.50;1.37;;;;;;;25.96;42.25;100548.16;2091137;83;21703;-80
2022/07/03 10:49:18;;;;;;;1.60;1.12;;;;;;;26.32;42.78;100533.77;2100042;83;20999;-80
2022/07/03 10:52:21;;;;;;;2.08;1.10;;;;;;;26.38;42.20;100531.39;2100475;83;21074;-81
2022/07/03 10:55:23;;;;;;;1.52;1.42;;;;;;;26.12;41.19;100528.18;2102052;83;20968;-82
2022/07/03 10:58:28;;;;;;;1.55;1.45;;;;;;;26.19;42.56;100528.80;2102953;83;21016;-78
2022/07/03 11:01:32;;;;;;;1.45;1.17;;;;;;;26.31;41.43;100524.52;2035951;86;21042;-82
2022/07/03 11:05:03;;;;;;;1.52;1.10;;;;;;;26.24;41.25;100522.01;2045443;86;21345;-79
2022/07/03 11:08:05;;;;;;;3.12;1.32;;;;;;;26.35;41.87;100518.83;2023484;86;21063;-83
2022/07/03 11:14:33;;;;;;;2.50;1.20;;;;;;;26.15;41.16;100524.94;2120848;82;21074;-83
2022/07/03 11:17:37;;;;;;;2.08;1.30;;;;;;;26.09;41.17;100519.19;2116615;82;21557;-83
2022/07/03 11:20:56;;;;;;;2.67;1.55;;;;;;;26.00;41.55;100513.41;2124388;82;21022;-81
2022/07/03 11:24:15;;;;;;;2.72;1.62;;;;;;;25.59;41.09;100511.64;2041199;86;21578;-82
2022/07/03 11:27:23;;;;;;;1.50;1.40;;;;;;;25.62;41.78;100517.95;2098520;83;21007;-81
2022/07/03 11:30:28;;;;;;;1.30;1.10;;;;;;;25.82;41.06;100503.72;2106437;83;21498;-78
2022/07/03 11:33:58;;;;;;;1.70;1.30;;;;;;;25.65;41.32;100497.56;2107873;83;21034;-82
2022/07/03 11:37:03;;;;;;;3.17;1.20;;;;;;;25.41;40.70;100499.25;2041668;86;21010;-79
2022/07/03 11:40:04;;;;;;;2.42;1.30;;;;;;;25.36;42.06;100497.83;2034331;86;21062;-81
2022/07/03 11:43:07;;;;;;;1.62;1.30;;;;;;;25.45;41.52;100496.32;2046221;86;21613;-83
2022/07/03 11:46:21;;;;;;;1.37;1.27;;;;;;;25.62;41.86;100481.78;2047858;86;20996;-81
2022/07/03 11:49:24;;;;;;;1.27;1.12;;;;;;;25.81;41.78;100483.59;2049384;86;20988;-82
2022/07/03 11:52:34;;;;;;;2.67;1.30;;;;;;;26.23;41.49;100481.49;2045127;86;21047;-81
2022/07/03 11:55:40;;;;;;;2.47;1.50;;;;;;;26.58;40.84;100486.34;2048024;86;21011;-82
2022/07/03 11:58:52;;;;;;;3.08;1.45;;;;;;;27.13;40.99;100482.77;2045827;86;21087;-83
2022/07/03 12:02:03;;;;;;;1.12;1.05;;;;;;;27.35;39.67;100479.87;2044872;86;21059;-83
2022/07/03 12:05:15;;;;;;;2.58;1.10;;;;;;;27.42;39.76;100478.50;2052401;86;21456;-84
2022/07/03 12:08:28;;;;;;;2.40;1.45;;;;;;;27.83;40.21;100473.12;2003110;86;21648;-82
2022/07/03 12:11:29;;;;;;;3.85;1.50;;;;;;;27.98;39.09;100470.92;2045528;86;20980;-81
2022/07/03 12:14:52;;;;;;;1.30;1.20;;;;;;;27.68;38.65;100460.83;2050321;86;21532;-82
2022/07/03 12:17:53;;;;;;;1.45;1.32;;;;;;;27.80;38.57;100464.67;2100827;83;21739;-80
2022/07/03 12:20:59;;;;;;;2.10;1.27;;;;;;;27.90;39.22;100460.56;2105994;83;21050;-81
2022/07/03 12:24:00;;;;;;;1.50;1.40;;;;;;;28.16;38.96;100444.45;2094671;83;21100;-82
2022/07/03 12:27:04;;;;;;;1.50;1.40;;;;;;;28.46;38.80;100442.75;2080153;83;21527;-80
2022/07/03 12:30:10;;;;;;;2.40;1.20;;;;;;;28.62;38.50;100444.89;2100719;83;21120;-82
2022/07/03 12:33:12;;;;;;;1.40;1.30;;;;;;;28.53;37.86;100435.10;2096744;83;21015;-80
2022/07/03 12:36:13;;;;;;;1.87;1.00;;;;;;;28.36;38.02;100430.50;2042947;85;20982;-80
2022/07/03 12:39:14;;;;;;;1.67;1.50;;;;;;;28.44;38.20;100430.48;2043480;85;21032;-82
2022/07/03 12:42:21;;;;;;;4.22;1.42;;;;;;;28.50;37.89;100440.31;2027602;86;21602;-81
2022/07/03 12:45:28;;;;;;;1.45;1.35;;;;;;;28.29;37.40;100433.50;2085380;83;21079;-81
2022/07/03 12:48:29;;;;;;;2.20;1.52;;;;;;;28.10;37.21;100427.84;2079398;83;20994;-82
2022/07/03 12:51:46;;;;;;;2.22;1.45;;;;;;;28.18;38.27;100422.89;2081948;83;20992;-81
2022/07/03 12:54:47;;;;;;;1.20;1.20;;;;;;;28.22;37.31;100426.72;2084929;83;21550;-80
2022/07/03 13:01:33;;;;;;;1.75;1.57;;;;;;;28.01;38.30;100436.28;2105057;83;21027;-82
2022/07/03 13:04:37;;;;;;;2.42;1.40;;;;;;;28.09;37.99;100429.46;2097568;83;21019;-82
2022/07/03 13:07:41;;;;;;;1.50;1.35;;;;;;;27.91;37.80;100429.50;2098609;83;21489;-81
2022/07/03 13:10:42;;;;;;;2.25;1.45;;;;;;;27.69;37.84;100425.11;2098717;83;21053;-82
2022/07/03 13:13:48;;;;;;;1.70;1.35;;;;;;;27.67;38.23;100428.64;2101743;83;20999;-82
2022/07/03 13:16:56;;;;;;;1.22;1.15;;;;;;;27.66;38.16;100424.30;2073034;84;21042;-82
2022/07/03 13:19:58;;;;;;;2.00;1.55;;;;;;;27.61;38.13;100425.66;2098066;83;21066;-82
2022/07/03 13:23:03;;;;;;;1.65;1.30;;;;;;;27.20;37.88;100424.80;2102460;83;21065;-81
2022/07/03 13:26:04;;;;;;;2.67;1.70;;;;;;;26.99;38.30;100418.47;2103221;83;21015;-79
2022/07/03 13:29:05;;;;;;;3.22;1.37;;;;;;;26.90;38.75;100414.09;2071855;83;21015;-80
2022/07/03 13:32:10;;;;;;;1.57;1.47;;;;;;;27.03;39.00;100413.59;2088167;83;21098;-81
2022/07/03 13:35:12;;;;;;;1.55;1.40;;;;;;;27.16;38.42;100401.38;2087124;83;21066;-82
2022/07/03 13:38:13;;;;;;;2.15;1.30;;;;;;;27.09;38.49;100397.23;2085109;83;21044;-81
2022/07/03 13:41:16;;;;;;;3.65;1.50;;;;;;;27.27;39.74;100397.57;2101895;83;21058;-79
2022/07/03 13:44:17;;;;;;;1.52;1.40;;;;;;;27.26;37.88;100390.50;2103485;83;21003;-83
2022/07/03 13:47:19;;;;;;;2.17;1.60;;;;;;;27.03;38.53;100391.80;2075045;83;21014;-81
2022/07/03 13:50:20;;;;;;;1.82;1.65;;;;;;;26.74;39.20;100396.87;2104120;83;21134;-80
2022/07/03 13:53:21;;;;;;;2.98;1.50;;;;;;;26.68;39.14;100393.06;2106387;83;20983;-81
2022/07/03 13:56:23;;;;;;;4.47;1.47;;;;;;;26.80;39.31;100386.83;2106031;83;21589;-82
2022/07/03 13:59:24;;;;;;;1.65;1.50;;;;;;;26.93;38.89;100394.49;2096991;83;21091;-81
2022/07/03 14:02:25;;;;;;;2.25;1.50;;;;;;;26.81;39.00;100387.13;2083531;83;21027;-81
2022/07/03 14:05:26;;;;;;;1.30;1.20;;;;;;;26.74;38.86;100386.00;2098266;83;21035;-82
2022/07/03 14:08:27;;;;;;;3.02;1.82;;;;;;;26.61;39.20;100383.80;2103654;83;21014;-82
2022/07/03 14:11:29;;;;;;;3.25;1.77;;;;;;;26.42;39.62;100382.05;2104498;83;20979;-79
2022/07/03 14:14:32;;;;;;;2.98;1.65;;;;;;;26.56;40.35;100385.13;2103471;83;21118;-82
2022/07/03 14:17:33;;;;;;;1.75;1.65;;;;;;;26.64;40.37;100378.34;2045591;85;21070;-81
2022/07/03 14:20:34;;;;;;;1.75;1.65;;;;;;;26.74;40.37;100379.73;2106852;83;20995;-82
2022/07/03 14:23:35;;;;;;;1.75;1.65;;;;;;;26.94;39.86;100362.09;2105719;83;21066;-80
2022/07/03 14:33:16;;;;;;;1.57;1.47;;;;;;;27.03;39.17;100355.56;2106910;83;21064;-80
2022/07/03 14:36:17;;;;;;;1.87;1.60;;;;;;;26.89;39.16;100354.45;2107458;83;21036;-81
2022/07/03 14:39:18;;;;;;;1.52;1.42;;;;;;;26.87;39.39;100352.56;2103562;83;21071;-82
2022/07/03 14:42:22;;;;;;;3.10;2.33;;;;;;;26.96;39.37;100348.22;2104525;83;20968;-81
2022/07/03 14:45:25;;;;;;;2.65;1.50;;;;;;;26.85;38.91;100337.03;2111856;83;21584;-82
2022/07/03 14:48:26;;;;;;;1.47;1.37;;;;;;;26.85;39.40;100332.95;2102560;83;21007;-79
2022/07/03 14:51:28;;;;;;;3.33;1.87;;;;;;;26.88;39.60;100340.03;2106884;83;21497;-80
2022/07/03 14:54:31;;;;;;;4.90;1.47;;;;;;;26.95;39.76;100339.78;2079482;83;21018;-81
2022/07/03 14:57:56;;;;;;;1.65;1.55;;;;;;;27.00;39.62;100331.08;2105104;83;21027;-80
2022/07/03 15:01:00;;;;;;;2.52;1.70;;;;;;;26.94;39.63;100331.33;2103977;83;21098;-81
2022/07/03 15:04:04;;;;;;;2.83;2.00;;;;;;;26.86;38.99;100334.58;2104988;83;21569;-78
2022/07/03 15:07:06;;;;;;;1.77;1.67;;;;;;;26.84;39.51;100328.06;2103629;83;21060;-82
2022/07/03 15:10:15;;;;;;;4.35;1.60;;;;;;;26.82;39.08;100331.04;2035978;85;20984;-80
2022/07/03 15:13:17;;;;;;;2.00;1.80;;;;;;;26.76;38.78;100330.76;2097721;83;21552;-80
2022/07/03 15:16:18;;;;;;;1.77;1.67;;;;;;;26.69;38.88;100332.91;2100444;83;21206;-81
2022/07/03 15:19:21;;;;;;;2.87;1.72;;;;;;;26.66;39.09;100333.45;2109840;83;20961;-81
2022/07/03 15:22:23;;;;;;;2.87;1.62;;;;;;;26.60;39.25;100331.25;2105435;83;21062;-83
2022/07/03 15:25:25;;;;;;;2.47;1.60;;;;;;;26.53;40.09;100329.34;2110366;83;21018;-79
2022/07/03 15:28:27;;;;;;;1.52;1.42;;;;;;;26.44;39.65;100328.72;2106104;83;21015;-79
2022/07/03 15:31:33;;;;;;;1.67;1.55;;;;;;;26.45;39.61;100326.30;2097380;83;21058;-80